createdAt,value
2022-09-15T00:00:29.243Z,14.40
2022-09-15T00:02:56.017Z,14.50
2022-09-15T00:05:22.936Z,14.60
2022-09-15T00:07:49.529Z,14.60
2022-09-15T00:10:17.395Z,14.70
2022-09-15T00:12:44.070Z,14.70
2022-09-15T00:15:14.746Z,14.80
2022-09-15T00:17:42.857Z,14.80
2022-09-15T00:20:10.344Z,14.80
2022-09-15T00:22:37.009Z,14.80
2022-09-15T00:25:03.970Z,14.90
2022-09-15T00:27:32.314Z,14.90
2022-09-15T00:29:59.137Z,14.90
2022-09-15T00:32:25.870Z,14.90
2022-09-15T00:34:53.507Z,14.90
2022-09-15T00:37:20.434Z,14.90
2022-09-15T00:39:47.158Z,14.90
2022-09-15T00:42:22.478Z,14.90
2022-09-15T00:44:58.962Z,14.90
2022-09-15T00:47:36.190Z,14.80
2022-09-15T00:50:18.476Z,14.80
2022-09-15T00:52:49.690Z,14.70
2022-09-15T00:55:19.120Z,14.60
2022-09-15T00:57:50.967Z,14.50
2022-09-15T01:00:20.926Z,14.50
2022-09-15T01:02:49.253Z,14.40
2022-09-15T01:05:18.311Z,14.40
2022-09-15T01:07:56.266Z,14.40
2022-09-15T01:10:32.345Z,14.30
2022-09-15T01:13:05.086Z,14.30
2022-09-15T01:15:55.392Z,14.20
2022-09-15T01:18:53.309Z,14.20
2022-09-15T01:21:48.282Z,14.10
2022-09-15T01:24:34.895Z,14.10
2022-09-15T01:27:41.698Z,14.00
2022-09-15T01:30:30.065Z,14.00
2022-09-15T01:33:12.275Z,14.00
2022-09-15T01:35:57.340Z,14.00
2022-09-15T01:38:47.652Z,14.00
2022-09-15T01:41:25.334Z,13.90
2022-09-15T01:44:03.687Z,13.90
2022-09-15T01:46:37.432Z,13.90
2022-09-15T01:49:07.056Z,13.80
2022-09-15T01:51:35.749Z,13.80
2022-09-15T01:54:05.462Z,13.80
2022-09-15T01:56:32.475Z,13.80
2022-09-15T01:58:59.248Z,13.80
2022-09-15T02:01:43.123Z,13.70
2022-09-15T02:04:18.187Z,13.70
2022-09-15T02:06:58.256Z,13.60
2022-09-15T02:09:30.509Z,13.60
2022-09-15T02:12:22.893Z,13.60
2022-09-15T02:14:57.567Z,13.60
2022-09-15T02:17:29.077Z,13.60
2022-09-15T02:20:11.215Z,13.50
2022-09-15T02:22:40.869Z,13.50
2022-09-15T02:25:20.299Z,13.50
2022-09-15T02:27:52.088Z,13.50
2022-09-15T02:30:20.746Z,13.50
2022-09-15T02:32:54.376Z,13.50
2022-09-15T02:35:22.098Z,13.40
2022-09-15T02:37:48.945Z,13.40
2022-09-15T02:40:15.708Z,13.30
2022-09-15T02:42:53.346Z,13.30
2022-09-15T02:45:20.408Z,13.30
2022-09-15T02:47:47.075Z,13.30
2022-09-15T02:50:13.665Z,13.30
2022-09-15T02:52:40.325Z,13.30
2022-09-15T02:55:07.263Z,13.30
2022-09-15T02:57:33.885Z,13.20
2022-09-15T03:00:13.355Z,13.20
2022-09-15T03:02:58.375Z,13.10
2022-09-15T03:05:28.158Z,13.10
2022-09-15T03:07:55.821Z,13.00
2022-09-15T03:10:24.957Z,13.00
2022-09-15T03:12:53.386Z,13.00
2022-09-15T03:15:23.337Z,13.10
2022-09-15T03:17:50.357Z,13.00
2022-09-15T03:20:20.188Z,13.00
2022-09-15T03:22:47.690Z,13.00
2022-09-15T03:25:14.407Z,12.90
2022-09-15T03:27:41.097Z,12.90
2022-09-15T03:30:09.086Z,12.90
2022-09-15T03:32:36.369Z,12.90
2022-09-15T03:35:03.916Z,12.90
2022-09-15T03:37:30.495Z,12.80
2022-09-15T03:39:57.174Z,12.90
2022-09-15T03:42:23.908Z,12.90
2022-09-15T03:44:50.488Z,12.80
2022-09-15T03:47:17.264Z,12.80
2022-09-15T03:49:43.903Z,12.80
2022-09-15T03:52:10.538Z,12.80
2022-09-15T03:54:37.235Z,12.80
2022-09-15T03:57:04.110Z,12.90
2022-09-15T03:59:30.822Z,12.90
2022-09-15T04:01:57.455Z,12.90
2022-09-15T04:04:24.220Z,12.90
2022-09-15T04:06:50.861Z,12.90
2022-09-15T04:09:20.258Z,13.00
2022-09-15T04:11:47.585Z,13.00
2022-09-15T04:14:14.144Z,13.10
2022-09-15T04:16:40.844Z,13.10
2022-09-15T04:19:07.632Z,13.20
2022-09-15T04:21:34.220Z,13.20
2022-09-15T04:24:00.886Z,13.20
2022-09-15T04:26:35.910Z,13.20
2022-09-15T04:29:04.933Z,13.20
2022-09-15T04:31:33.198Z,13.30
2022-09-15T04:34:00.137Z,13.20
2022-09-15T04:36:28.457Z,13.30
2022-09-15T04:38:56.306Z,13.30
2022-09-15T04:41:22.987Z,13.30
2022-09-15T04:43:49.839Z,13.30
2022-09-15T04:46:16.962Z,13.30
2022-09-15T04:48:45.442Z,13.30
2022-09-15T04:51:15.298Z,13.30
2022-09-15T04:53:42.809Z,13.30
2022-09-15T04:56:12.886Z,13.30
2022-09-15T04:58:44.961Z,13.30
2022-09-15T05:01:17.750Z,13.30
2022-09-15T05:03:46.405Z,13.30
2022-09-15T05:06:18.577Z,13.20
2022-09-15T05:08:49.994Z,13.30
2022-09-15T05:11:17.541Z,13.40
2022-09-15T05:13:44.379Z,13.50
2022-09-15T05:16:16.691Z,13.50
2022-09-15T05:18:47.010Z,13.60
2022-09-15T05:21:15.809Z,13.60
2022-09-15T05:23:43.017Z,13.70
2022-09-15T05:26:13.566Z,13.80
2022-09-15T05:28:40.257Z,13.80
2022-09-15T05:31:12.306Z,13.80
2022-09-15T05:33:39.458Z,13.80
2022-09-15T05:36:07.174Z,13.90
2022-09-15T05:38:33.785Z,13.90
2022-09-15T05:41:05.500Z,14.00
2022-09-15T05:43:33.979Z,14.10
2022-09-15T05:46:01.661Z,14.10
2022-09-15T05:48:28.821Z,14.30
2022-09-15T05:50:56.181Z,14.30
2022-09-15T05:53:23.345Z,14.40
2022-09-15T05:55:55.449Z,14.40
2022-09-15T05:58:22.221Z,14.40
2022-09-15T06:00:48.859Z,14.60
2022-09-15T06:03:16.560Z,14.60
2022-09-15T06:05:43.406Z,14.60
2022-09-15T06:08:10.535Z,14.60
2022-09-15T06:10:37.212Z,14.60
2022-09-15T06:13:03.824Z,14.70
2022-09-15T06:15:31.358Z,14.80
2022-09-15T06:17:58.113Z,14.90
2022-09-15T06:20:25.505Z,14.90
2022-09-15T06:22:53.743Z,15.10
2022-09-15T06:25:20.324Z,15.10
2022-09-15T06:27:49.286Z,15.20
2022-09-15T06:30:15.929Z,15.30
2022-09-15T06:32:47.404Z,15.40
2022-09-15T06:35:15.166Z,15.50
2022-09-15T06:37:41.769Z,15.70
2022-09-15T06:40:08.874Z,15.90
2022-09-15T06:42:35.649Z,16.10
2022-09-15T06:45:04.255Z,16.40
2022-09-15T06:47:33.905Z,16.30
2022-09-15T06:50:01.227Z,16.10
2022-09-15T06:52:27.911Z,15.90
2022-09-15T06:54:54.592Z,15.70
2022-09-15T06:57:21.154Z,15.70
2022-09-15T06:59:48.828Z,15.70
2022-09-15T07:02:15.600Z,15.80
2022-09-15T07:04:42.237Z,15.80
2022-09-15T07:07:09.120Z,15.90
2022-09-15T07:09:37.967Z,16.00
2022-09-15T07:12:08.094Z,16.10
2022-09-15T07:14:34.677Z,16.20
2022-09-15T07:17:01.405Z,16.30
2022-09-15T07:19:27.965Z,16.30
2022-09-15T07:21:54.605Z,16.30
2022-09-15T07:24:21.167Z,16.40
2022-09-15T07:26:47.918Z,16.50
2022-09-15T07:29:14.557Z,16.60
2022-09-15T07:31:41.447Z,16.50
2022-09-15T07:34:08.321Z,16.60
2022-09-15T07:36:35.522Z,16.60
2022-09-15T07:39:03.777Z,16.50
2022-09-15T07:41:32.160Z,16.40
2022-09-15T07:44:00.122Z,16.40
2022-09-15T07:46:29.712Z,16.30
2022-09-15T07:48:56.520Z,16.30
2022-09-15T07:51:24.257Z,16.50
2022-09-15T07:53:51.781Z,16.70
2022-09-15T07:56:18.985Z,16.80
2022-09-15T07:58:46.913Z,17.00
2022-09-15T08:01:16.965Z,17.20
2022-09-15T08:03:46.239Z,17.30
2022-09-15T08:06:13.539Z,17.40
2022-09-15T08:08:41.489Z,17.50
2022-09-15T08:11:09.214Z,17.60
2022-09-15T08:13:36.482Z,17.80
2022-09-15T08:16:14.687Z,17.90
2022-09-15T08:18:42.580Z,18.00
2022-09-15T08:21:13.149Z,18.10
2022-09-15T08:23:40.278Z,18.20
2022-09-15T08:26:13.662Z,18.40
2022-09-15T08:28:41.836Z,18.60
2022-09-15T08:31:11.363Z,18.60
2022-09-15T08:33:43.154Z,18.80
2022-09-15T08:36:13.063Z,18.90
2022-09-15T08:38:41.273Z,18.80
2022-09-15T08:41:31.915Z,18.70
2022-09-15T08:44:24.584Z,18.90
2022-09-15T08:47:06.420Z,19.10
2022-09-15T08:49:54.973Z,19.10
2022-09-15T08:52:21.575Z,19.00
2022-09-15T08:54:51.925Z,19.30
2022-09-15T08:57:22.685Z,19.70
2022-09-15T08:59:49.351Z,19.80
2022-09-15T09:02:39.739Z,19.80
2022-09-15T09:05:34.297Z,19.70
2022-09-15T09:08:07.848Z,19.80
2022-09-15T09:11:03.839Z,19.90
2022-09-15T09:13:36.138Z,20.00
2022-09-15T09:16:34.869Z,20.20
2022-09-15T09:19:23.922Z,20.40
2022-09-15T09:21:59.598Z,20.60
2022-09-15T09:24:36.550Z,20.60
2022-09-15T09:27:04.290Z,20.60
2022-09-15T09:29:35.699Z,20.70
2022-09-15T09:32:03.482Z,20.70
2022-09-15T09:34:32.756Z,20.30
2022-09-15T09:37:08.637Z,19.90
2022-09-15T09:39:35.446Z,19.80
2022-09-15T09:42:03.327Z,19.90
2022-09-15T09:44:33.480Z,19.90
2022-09-15T09:47:04.537Z,20.00
2022-09-15T09:49:34.632Z,20.20
2022-09-15T09:52:04.654Z,20.20
2022-09-15T09:54:33.792Z,20.10
2022-09-15T09:57:22.981Z,19.90
2022-09-15T09:59:50.953Z,19.70
2022-09-15T10:02:24.368Z,19.60
2022-09-15T10:05:12.161Z,19.70
2022-09-15T10:07:45.709Z,19.60
2022-09-15T10:10:21.473Z,19.90
2022-09-15T10:12:48.534Z,20.20
2022-09-15T10:15:24.488Z,20.80
2022-09-15T10:17:53.089Z,21.30
2022-09-15T10:20:38.753Z,21.60
2022-09-15T10:23:17.622Z,21.90
2022-09-15T10:25:58.563Z,22.20
2022-09-15T10:28:27.366Z,22.20
2022-09-15T10:31:10.838Z,22.40
2022-09-15T10:33:47.826Z,22.30
2022-09-15T10:36:28.472Z,22.20
2022-09-15T10:39:21.089Z,21.70
2022-09-15T10:42:12.821Z,21.50
2022-09-15T10:44:52.544Z,21.70
2022-09-15T10:47:33.917Z,21.70
2022-09-15T10:50:14.482Z,21.50
2022-09-15T10:53:11.954Z,21.20
2022-09-15T10:55:53.801Z,20.50
2022-09-15T10:58:43.593Z,20.70
2022-09-15T11:01:30.187Z,21.40
2022-09-15T11:04:11.368Z,21.70
2022-09-15T11:07:05.206Z,22.70
2022-09-15T11:09:49.714Z,22.80
2022-09-15T11:12:19.397Z,22.50
2022-09-15T11:14:56.920Z,22.60
2022-09-15T11:17:50.296Z,22.60
2022-09-15T11:20:51.802Z,21.90
2022-09-15T11:23:37.255Z,22.10
2022-09-15T11:26:14.464Z,22.30
2022-09-15T11:29:03.293Z,22.20
2022-09-15T11:31:36.609Z,21.60
2022-09-15T11:34:28.672Z,21.10
2022-09-15T11:37:09.032Z,20.90
2022-09-15T11:39:44.813Z,20.90
2022-09-15T11:42:18.967Z,20.60
2022-09-15T11:44:47.879Z,20.70
2022-09-15T11:47:23.833Z,20.80
2022-09-15T11:50:11.551Z,20.90
2022-09-15T11:52:57.153Z,21.00
2022-09-15T11:55:51.666Z,20.90
2022-09-15T11:58:33.277Z,20.90
2022-09-15T12:01:11.983Z,21.30
2022-09-15T12:03:52.703Z,21.40
2022-09-15T12:06:46.059Z,21.50
2022-09-15T12:09:17.508Z,21.40
2022-09-15T12:11:55.235Z,21.20
2022-09-15T12:14:33.269Z,20.80
2022-09-15T12:17:01.413Z,20.20
2022-09-15T12:19:40.090Z,20.00
2022-09-15T12:22:14.464Z,19.80
2022-09-15T12:25:02.474Z,19.50
2022-09-15T12:27:30.039Z,19.10
2022-09-15T12:30:00.170Z,18.80
2022-09-15T12:32:26.911Z,18.60
2022-09-15T12:35:15.599Z,18.30
2022-09-15T12:37:46.178Z,18.00
2022-09-15T12:40:39.909Z,17.80
2022-09-15T12:43:13.315Z,17.50
2022-09-15T12:45:43.001Z,17.60
2022-09-15T12:48:25.225Z,18.00
2022-09-15T12:50:58.175Z,18.20
2022-09-15T12:53:28.748Z,18.30
2022-09-15T12:55:58.130Z,18.50
2022-09-15T12:58:49.145Z,18.80
2022-09-15T13:01:19.129Z,18.90
2022-09-15T13:03:46.318Z,19.00
2022-09-15T13:06:19.219Z,18.90
2022-09-15T13:09:05.830Z,19.00
2022-09-15T13:11:38.632Z,18.90
2022-09-15T13:14:08.221Z,19.10
2022-09-15T13:16:45.964Z,19.20
2022-09-15T13:19:51.051Z,19.40
2022-09-15T13:22:30.155Z,20.10
2022-09-15T13:25:11.072Z,20.10
2022-09-15T13:27:42.505Z,20.00
2022-09-15T13:30:31.078Z,19.90
2022-09-15T13:33:17.155Z,20.10
2022-09-15T13:35:52.314Z,20.50
2022-09-15T13:38:50.182Z,20.60
2022-09-15T13:41:42.926Z,21.10
2022-09-15T13:44:27.763Z,22.00
2022-09-15T13:47:19.388Z,22.30
2022-09-15T13:50:10.665Z,21.50
2022-09-15T13:52:55.095Z,21.50
2022-09-15T13:55:27.842Z,21.50
2022-09-15T14:01:06.937Z,21.00
2022-09-15T14:03:56.247Z,21.10
2022-09-15T14:06:47.827Z,21.30
2022-09-15T14:09:26.625Z,21.40
2022-09-15T14:11:57.549Z,21.60
2022-09-15T14:14:26.921Z,21.80
2022-09-15T14:16:55.084Z,21.70
2022-09-15T14:19:33.700Z,21.80
2022-09-15T14:22:26.098Z,22.10
2022-09-15T14:24:54.007Z,22.10
2022-09-15T14:27:30.283Z,22.00
2022-09-15T14:29:58.381Z,21.90
2022-09-15T14:32:27.942Z,21.70
2022-09-15T14:34:58.750Z,21.50
2022-09-15T14:37:28.377Z,21.20
2022-09-15T14:39:57.931Z,20.80
2022-09-15T14:42:40.782Z,20.50
2022-09-15T14:48:42.532Z,19.80
2022-09-15T14:54:24.554Z,19.20
2022-09-15T14:56:52.182Z,19.00
2022-09-15T14:59:29.601Z,18.90
2022-09-15T15:02:36.457Z,18.80
2022-09-15T15:05:17.958Z,18.70
2022-09-15T15:07:46.253Z,18.60
2022-09-15T15:10:26.668Z,18.60
2022-09-15T15:13:02.068Z,18.70
2022-09-15T15:15:31.064Z,18.70
2022-09-15T15:17:58.667Z,18.50
2022-09-15T15:20:33.200Z,18.00
2022-09-15T15:23:18.465Z,17.50
2022-09-15T15:25:47.070Z,17.00
2022-09-15T15:28:31.565Z,16.70
2022-09-15T15:31:22.734Z,16.40
2022-09-15T15:33:53.640Z,16.00
2022-09-15T15:36:24.697Z,15.80
2022-09-15T15:38:58.208Z,15.70
2022-09-15T15:41:31.490Z,15.70
2022-09-15T15:44:03.104Z,15.70
2022-09-15T15:46:47.216Z,15.90
2022-09-15T15:49:14.126Z,15.90
2022-09-15T15:51:41.589Z,15.90
2022-09-15T15:54:08.245Z,15.70
2022-09-15T15:56:38.058Z,15.70
2022-09-15T15:59:05.382Z,15.70
2022-09-15T16:01:32.843Z,15.90
2022-09-15T16:03:59.440Z,16.10
2022-09-15T16:06:26.305Z,16.30
2022-09-15T16:08:53.562Z,16.40
2022-09-15T16:11:20.887Z,16.50
2022-09-15T16:13:48.302Z,16.60
2022-09-15T16:16:14.980Z,16.50
2022-09-15T16:18:41.685Z,16.60
2022-09-15T16:21:17.433Z,16.60
2022-09-15T16:23:44.189Z,16.70
2022-09-15T16:26:15.874Z,16.80
2022-09-15T16:28:43.164Z,16.90
2022-09-15T16:31:13.063Z,16.90
2022-09-15T16:33:44.286Z,16.90
2022-09-15T16:36:13.732Z,17.00
2022-09-15T16:38:43.624Z,16.90
2022-09-15T16:41:28.417Z,16.80
2022-09-15T16:43:57.779Z,16.70
2022-09-15T16:46:25.124Z,16.60
2022-09-15T16:48:51.794Z,16.60
2022-09-15T16:51:27.970Z,16.60
2022-09-15T16:53:56.756Z,16.50
2022-09-15T16:56:23.406Z,16.50
2022-09-15T16:58:53.847Z,16.40
2022-09-15T17:01:25.188Z,16.40
2022-09-15T17:03:51.841Z,16.30
2022-09-15T17:06:18.629Z,16.30
2022-09-15T17:08:48.675Z,16.20
2022-09-15T17:11:17.450Z,16.10
2022-09-15T17:13:44.857Z,16.00
2022-09-15T17:16:15.025Z,15.90
2022-09-15T17:18:43.319Z,15.70
2022-09-15T17:21:13.147Z,15.50
2022-09-15T17:23:52.494Z,15.40
2022-09-15T17:26:30.482Z,15.30
2022-09-15T17:28:58.816Z,15.20
2022-09-15T17:31:25.832Z,15.10
2022-09-15T17:33:53.010Z,15.00
2022-09-15T17:36:19.963Z,15.00
2022-09-15T17:38:48.651Z,15.00
2022-09-15T17:41:17.638Z,14.90
2022-09-15T17:43:44.842Z,14.80
2022-09-15T17:46:11.785Z,14.80
2022-09-15T17:48:38.943Z,14.70
2022-09-15T17:51:07.055Z,14.70
2022-09-15T17:53:34.020Z,14.60
2022-09-15T17:56:00.913Z,14.60
2022-09-15T17:58:29.857Z,14.60
2022-09-15T18:00:57.170Z,14.60
2022-09-15T18:03:27.421Z,14.60
2022-09-15T18:05:55.966Z,14.50
2022-09-15T18:08:22.557Z,14.50
2022-09-15T18:10:49.424Z,14.50
2022-09-15T18:13:21.591Z,14.50
2022-09-15T18:15:49.323Z,14.50
2022-09-15T18:18:22.429Z,14.40
2022-09-15T18:20:50.831Z,14.40
2022-09-15T18:23:20.061Z,14.40
2022-09-15T18:25:47.701Z,14.40
2022-09-15T18:28:15.289Z,14.40
2022-09-15T18:30:43.805Z,14.40
2022-09-15T18:33:20.178Z,14.40
2022-09-15T18:35:48.621Z,14.40
2022-09-15T18:38:15.618Z,14.30
2022-09-15T18:40:53.174Z,14.30
2022-09-15T18:43:21.026Z,14.30
2022-09-15T18:45:48.362Z,14.20
2022-09-15T18:48:15.426Z,14.20
2022-09-15T18:50:44.088Z,14.20
2022-09-15T18:53:11.210Z,14.20
2022-09-15T18:55:41.083Z,14.20
2022-09-15T18:58:08.209Z,14.20
2022-09-15T19:00:35.393Z,14.20
2022-09-15T19:03:03.738Z,14.20
2022-09-15T19:05:31.108Z,14.20
2022-09-15T19:07:57.943Z,14.20
2022-09-15T19:10:26.526Z,14.30
2022-09-15T19:12:53.726Z,14.20
2022-09-15T19:15:23.665Z,14.20
2022-09-15T19:17:50.881Z,14.20
2022-09-15T19:20:17.885Z,14.30
2022-09-15T19:22:44.582Z,14.30
2022-09-15T19:25:12.378Z,14.30
2022-09-15T19:27:39.716Z,14.40
2022-09-15T19:30:09.787Z,14.40
2022-09-15T19:32:37.653Z,14.40
2022-09-15T19:35:05.073Z,14.40
2022-09-15T19:37:31.678Z,14.50
2022-09-15T19:39:58.364Z,14.40
2022-09-15T19:42:25.038Z,14.40
2022-09-15T19:44:51.711Z,14.30
2022-09-15T19:47:18.530Z,14.30
2022-09-15T19:49:45.210Z,14.20
2022-09-15T19:52:12.753Z,14.10
2022-09-15T19:54:39.519Z,14.00
2022-09-15T19:57:06.156Z,13.90
2022-09-15T19:59:32.846Z,13.80
2022-09-15T20:02:00.783Z,13.80
2022-09-15T20:07:12.761Z,13.60
2022-09-15T20:09:39.402Z,13.60
2022-09-15T20:12:09.390Z,13.50
2022-09-15T20:14:36.152Z,13.50
2022-09-15T20:17:02.732Z,13.40
2022-09-15T20:19:29.884Z,13.40
2022-09-15T20:21:56.660Z,13.30
2022-09-15T20:24:24.477Z,13.10
2022-09-15T20:26:52.613Z,13.10
2022-09-15T20:29:20.169Z,13.00
2022-09-15T20:31:47.420Z,12.90
2022-09-15T20:34:13.958Z,12.70
2022-09-15T20:36:40.925Z,12.70
2022-09-15T20:39:12.042Z,12.70
2022-09-15T20:41:40.110Z,12.70
2022-09-15T20:44:09.325Z,12.60
2022-09-15T20:46:36.454Z,12.60
2022-09-15T20:49:04.638Z,12.60
2022-09-15T20:51:33.431Z,12.60
2022-09-15T20:54:01.941Z,12.60
2022-09-15T20:56:30.012Z,12.50
2022-09-15T20:58:58.444Z,12.50
2022-09-15T21:01:32.286Z,12.50
2022-09-15T21:03:59.213Z,12.50
2022-09-15T21:06:27.624Z,12.40
2022-09-15T21:08:56.040Z,12.40
2022-09-15T21:11:23.982Z,12.40
2022-09-15T21:13:50.725Z,12.40
2022-09-15T21:16:20.588Z,12.40
2022-09-15T21:18:48.216Z,12.40
2022-09-15T21:21:20.932Z,12.40
2022-09-15T21:23:50.014Z,12.30
2022-09-15T21:26:18.769Z,12.30
2022-09-15T21:28:45.715Z,12.30
2022-09-15T21:31:18.788Z,12.30
2022-09-15T21:33:46.878Z,12.30
2022-09-15T21:36:17.415Z,12.30
2022-09-15T21:38:44.574Z,12.30
2022-09-15T21:41:14.169Z,12.30
2022-09-15T21:43:43.067Z,12.30
2022-09-15T21:46:12.732Z,12.30
2022-09-15T21:48:40.018Z,12.30
2022-09-15T21:51:07.873Z,12.20
2022-09-15T21:53:37.710Z,12.20
2022-09-15T21:56:06.461Z,12.20
2022-09-15T21:58:39.073Z,12.20
2022-09-15T22:01:19.576Z,12.10
2022-09-15T22:04:01.097Z,12.10
2022-09-15T22:06:35.684Z,12.10
2022-09-15T22:09:05.666Z,12.10
2022-09-15T22:11:32.997Z,12.10
2022-09-15T22:14:02.709Z,12.10
2022-09-15T22:16:29.601Z,12.20
2022-09-15T22:18:56.405Z,12.20
2022-09-15T22:21:25.739Z,12.30
2022-09-15T22:23:54.756Z,12.20
2022-09-15T22:26:23.519Z,12.20
2022-09-15T22:28:50.142Z,12.20
2022-09-15T22:31:19.503Z,12.30
2022-09-15T22:33:46.634Z,12.30
2022-09-15T22:36:29.966Z,12.20
2022-09-15T22:39:03.920Z,12.30
2022-09-15T22:41:36.226Z,12.30
2022-09-15T22:44:03.916Z,12.30
2022-09-15T22:46:31.140Z,12.30
2022-09-15T22:48:58.304Z,12.30
2022-09-15T22:51:24.983Z,12.40
2022-09-15T22:53:56.884Z,12.40
2022-09-15T22:56:25.862Z,12.50
2022-09-15T22:58:52.794Z,12.50
2022-09-15T23:01:21.809Z,12.50
2022-09-15T23:03:57.106Z,12.50
2022-09-15T23:06:25.242Z,12.50
2022-09-15T23:08:53.775Z,12.50
2022-09-15T23:11:20.998Z,12.50
2022-09-15T23:13:48.265Z,12.50
2022-09-15T23:16:15.075Z,12.40
2022-09-15T23:18:41.810Z,12.40
2022-09-15T23:21:10.366Z,12.40
2022-09-15T23:23:39.240Z,12.40
2022-09-15T23:26:08.009Z,12.30
2022-09-15T23:28:34.779Z,12.30
2022-09-15T23:31:01.768Z,12.30
2022-09-15T23:33:31.435Z,12.20
2022-09-15T23:36:06.988Z,12.20
2022-09-15T23:38:42.390Z,12.20
2022-09-15T23:41:10.088Z,12.20
2022-09-15T23:43:36.920Z,12.20
2022-09-15T23:46:04.386Z,12.20
2022-09-15T23:48:34.507Z,12.20
2022-09-15T23:51:01.481Z,12.10
2022-09-15T23:53:29.129Z,12.10
2022-09-15T23:55:56.341Z,12.20
2022-09-15T23:58:22.976Z,12.10
